Time;durP1;ratioP1;P1;durP2;ratioP2;P2;SDS_P1;SDS_P2;PMS_P1;PMS_P2;Temp;Humidity;BMP_temperature;BMP_pressure;BME280_temperature;BME280_humidity;BME280_pressure;Samples;Min_cycle;Max_cycle;Signal;HPM_P1;HPM_P2
2024/04/10 00:02:09;;;;;;;13.40;7.55;;;17.10;70.30;;;;;;5452181;26;20006;-75
2024/04/10 00:04:37;;;;;;;12.73;7.50;;;17.20;70.60;;;;;;5448110;26;20003;-75
2024/04/10 00:07:08;;;;;;;14.55;7.85;;;17.10;70.40;;;;;;5446687;26;20010;-75
2024/04/10 00:09:41;;;;;;;14.13;7.20;;;17.10;70.40;;;;;;5439418;26;20022;-76
2024/04/10 00:12:11;;;;;;;13.00;7.70;;;17.00;70.80;;;;;;5446062;26;20003;-76
2024/04/10 00:14:40;;;;;;;12.48;7.22;;;16.90;71.20;;;;;;5445074;26;20105;-74
2024/04/10 00:17:09;;;;;;;11.68;7.30;;;16.90;71.50;;;;;;5447025;26;20002;-74
2024/04/10 00:19:37;;;;;;;12.73;6.97;;;16.90;71.30;;;;;;5450968;26;20330;-73
2024/04/10 00:22:15;;;;;;;14.80;7.30;;;16.90;71.10;;;;;;5416800;26;20002;-73
2024/04/10 00:24:43;;;;;;;11.30;7.03;;;16.70;71.60;;;;;;5404202;26;19999;-75
2024/04/10 00:27:11;;;;;;;10.77;6.88;;;16.60;71.80;;;;;;5449879;26;20026;-75
2024/04/10 00:29:38;;;;;;;10.55;6.80;;;16.70;71.80;;;;;;5420734;26;20009;-75
2024/04/10 00:32:06;;;;;;;11.88;6.78;;;16.70;71.90;;;;;;5412601;26;20003;-76
2024/04/10 00:34:35;;;;;;;12.52;6.50;;;16.70;71.40;;;;;;5431952;26;20000;-73
2024/04/10 00:37:03;;;;;;;16.38;6.95;;;16.70;71.70;;;;;;5426131;26;19999;-74
2024/04/10 00:39:31;;;;;;;16.83;6.63;;;16.70;71.50;;;;;;5385996;26;20011;-75
2024/04/10 00:41:59;;;;;;;9.85;6.18;;;16.70;71.10;;;;;;5405127;26;20004;-75
2024/04/10 00:44:27;;;;;;;9.30;5.82;;;16.70;71.30;;;;;;5417830;26;20397;-74
2024/04/10 00:46:55;;;;;;;12.10;6.38;;;16.60;71.70;;;;;;5409189;26;20045;-74
2024/04/10 00:49:23;;;;;;;13.20;6.38;;;16.50;72.30;;;;;;5421481;26;20003;-74
2024/04/10 00:51:51;;;;;;;10.90;6.40;;;16.10;72.50;;;;;;5410250;26;20436;-73
2024/04/10 00:54:22;;;;;;;12.23;6.65;;;15.80;73.20;;;;;;5436159;26;20126;-74
2024/04/10 00:56:50;;;;;;;11.57;6.72;;;15.60;74.40;;;;;;5419604;26;20319;-74
2024/04/10 00:59:18;;;;;;;10.43;6.20;;;15.80;73.90;;;;;;5417111;26;19999;-75
2024/04/10 01:01:46;;;;;;;10.25;6.25;;;16.00;73.80;;;;;;5433759;26;20079;-74
2024/04/10 01:04:13;;;;;;;12.80;7.40;;;16.10;73.50;;;;;;5450489;26;20052;-76
2024/04/10 01:06:41;;;;;;;11.80;6.75;;;16.20;73.40;;;;;;5432416;26;20014;-75
2024/04/10 01:09:08;;;;;;;10.77;6.43;;;16.20;72.70;;;;;;5422330;26;20003;-76
2024/04/10 01:11:36;;;;;;;12.80;6.05;;;16.20;72.70;;;;;;5402747;26;20076;-75
2024/04/10 01:14:07;;;;;;;10.63;6.65;;;16.20;72.40;;;;;;5386201;26;20072;-75
2024/04/10 01:16:35;;;;;;;10.10;6.10;;;16.30;72.30;;;;;;5390613;26;20011;-74
2024/04/10 01:19:03;;;;;;;10.52;6.25;;;16.30;72.40;;;;;;5388232;26;20004;-75
2024/04/10 01:21:31;;;;;;;12.25;7.00;;;16.20;72.70;;;;;;5415125;26;20089;-75
2024/04/10 01:23:58;;;;;;;11.10;6.15;;;16.20;72.80;;;;;;5464802;26;20438;-78
2024/04/10 01:26:25;;;;;;;10.32;5.55;;;15.70;73.20;;;;;;5450214;26;19999;-76
2024/04/10 01:28:53;;;;;;;10.80;6.38;;;15.60;74.00;;;;;;5420789;26;20056;-75
2024/04/10 01:31:21;;;;;;;10.77;6.20;;;15.80;73.80;;;;;;5450254;26;20007;-76
2024/04/10 01:33:48;;;;;;;9.90;5.60;;;15.80;73.60;;;;;;5455731;26;20003;-76
2024/04/10 01:36:22;;;;;;;12.98;6.50;;;16.00;73.60;;;;;;5406974;26;20414;-75
2024/04/10 01:38:50;;;;;;;11.95;6.65;;;16.00;73.20;;;;;;5416702;26;20300;-75
2024/04/10 01:41:17;;;;;;;9.93;6.30;;;16.10;73.10;;;;;;5435709;26;19999;-75
2024/04/10 01:43:47;;;;;;;9.90;6.13;;;16.20;73.40;;;;;;5420218;26;20652;-76
2024/04/10 01:46:17;;;;;;;10.20;6.35;;;16.10;73.70;;;;;;5440838;26;20079;-76
2024/04/10 01:48:49;;;;;;;12.55;7.22;;;16.00;74.10;;;;;;5444293;26;20057;-76
2024/04/10 01:51:18;;;;;;;9.98;6.15;;;16.00;74.20;;;;;;5416583;26;20075;-76
2024/04/10 01:53:48;;;;;;;16.80;6.80;;;15.90;74.40;;;;;;5444688;26;19999;-75
2024/04/10 01:56:15;;;;;;;9.48;6.43;;;15.90;74.40;;;;;;5443771;26;20034;-75
2024/04/10 01:58:43;;;;;;;10.45;6.50;;;15.90;74.90;;;;;;5449860;26;20030;-75
2024/04/10 02:01:10;;;;;;;13.02;6.18;;;15.90;75.20;;;;;;5420258;26;20011;-78
2024/04/10 02:03:38;;;;;;;12.63;6.32;;;15.80;74.20;;;;;;5450317;26;20007;-77
2024/04/10 02:06:06;;;;;;;10.73;6.55;;;15.80;74.30;;;;;;5414211;26;20004;-77
2024/04/10 02:08:33;;;;;;;12.93;6.80;;;15.80;74.30;;;;;;5385760;26;20384;-77
2024/04/10 02:11:19;;;;;;;8.68;5.88;;;15.80;74.40;;;;;;5447979;26;20018;-76
2024/04/10 02:13:47;;;;;;;11.75;6.38;;;15.70;74.60;;;;;;5416079;26;20002;-75
2024/04/10 02:16:15;;;;;;;11.30;6.32;;;15.60;74.80;;;;;;5430633;26;20026;-75
2024/04/10 02:18:42;;;;;;;13.65;6.15;;;15.50;74.90;;;;;;5424347;26;19999;-76
2024/04/10 02:21:10;;;;;;;8.63;5.80;;;15.50;74.70;;;;;;5414038;26;20388;-77
2024/04/10 02:23:37;;;;;;;9.57;5.90;;;15.50;74.40;;;;;;5399299;26;20003;-75
2024/04/10 02:26:11;;;;;;;10.45;6.28;;;15.40;74.40;;;;;;5445794;26;20002;-77
2024/04/10 02:28:38;;;;;;;8.82;5.90;;;15.40;74.60;;;;;;5433431;26;20486;-75
2024/04/10 02:31:06;;;;;;;11.65;6.18;;;14.90;75.00;;;;;;5419321;26;20006;-76
2024/04/10 02:33:37;;;;;;;10.07;6.28;;;14.80;76.10;;;;;;5443026;26;19998;-77
2024/04/10 02:36:06;;;;;;;10.73;5.85;;;14.90;76.40;;;;;;5413993;26;20003;-75
2024/04/10 02:38:34;;;;;;;8.73;6.40;;;15.00;76.50;;;;;;5443452;26;20013;-75
2024/04/10 02:41:03;;;;;;;12.15;6.05;;;14.90;75.70;;;;;;5449670;26;20014;-77
2024/04/10 02:43:30;;;;;;;9.88;5.72;;;14.80;76.40;;;;;;5449676;26;20010;-73
2024/04/10 02:46:02;;;;;;;9.60;5.93;;;14.60;76.50;;;;;;5428205;26;20010;-74
2024/04/10 02:48:30;;;;;;;10.88;6.53;;;14.40;77.20;;;;;;5447962;26;20007;-75
2024/04/10 02:50:57;;;;;;;9.13;5.95;;;13.90;78.70;;;;;;5426835;26;20031;-76
2024/04/10 02:53:25;;;;;;;11.35;6.40;;;13.50;80.40;;;;;;5448899;26;20025;-74
2024/04/10 02:55:54;;;;;;;11.07;6.30;;;13.30;81.50;;;;;;5418275;26;20006;-73
2024/04/10 02:58:21;;;;;;;9.05;6.22;;;13.20;81.60;;;;;;5405769;26;20339;-75
2024/04/10 03:00:51;;;;;;;9.35;6.35;;;13.50;81.10;;;;;;5434192;26;20040;-77
2024/04/10 03:03:20;;;;;;;10.30;6.65;;;13.90;80.40;;;;;;5444007;26;20052;-76
2024/04/10 03:05:59;;;;;;;9.85;6.40;;;14.10;80.00;;;;;;5395643;26;20036;-75
2024/04/10 03:08:26;;;;;;;8.38;6.47;;;14.20;80.00;;;;;;5439136;26;20627;-77
2024/04/10 03:10:54;;;;;;;12.38;6.57;;;14.20;80.10;;;;;;5438280;26;20011;-73
2024/04/10 03:13:22;;;;;;;11.85;6.07;;;14.40;79.40;;;;;;5444727;26;20080;-77
2024/04/10 03:15:49;;;;;;;14.95;6.75;;;14.40;78.70;;;;;;5418935;26;20003;-75
2024/04/10 03:18:18;;;;;;;11.50;6.93;;;14.40;78.70;;;;;;5444682;26;20079;-77
2024/04/10 03:20:45;;;;;;;12.15;7.20;;;14.40;78.30;;;;;;5418481;26;20006;-76
2024/04/10 03:23:12;;;;;;;8.02;6.03;;;14.50;77.50;;;;;;5440712;26;20396;-75
2024/04/10 03:25:40;;;;;;;11.48;6.45;;;14.50;77.40;;;;;;5383618;26;20040;-77
2024/04/10 03:28:08;;;;;;;12.32;7.00;;;14.50;77.50;;;;;;5422572;26;19999;-75
2024/04/10 03:30:36;;;;;;;10.63;6.50;;;14.50;77.80;;;;;;5414153;26;20034;-78
2024/04/10 03:33:03;;;;;;;10.68;6.70;;;14.50;78.10;;;;;;5389247;26;20039;-76
2024/04/10 03:35:31;;;;;;;14.57;6.75;;;14.40;77.80;;;;;;5454468;26;20071;-78
2024/04/10 03:37:59;;;;;;;9.75;6.03;;;14.40;77.80;;;;;;5452353;26;20003;-74
2024/04/10 03:40:26;;;;;;;11.80;7.03;;;14.40;78.00;;;;;;5428357;26;19999;-78
2024/04/10 03:42:55;;;;;;;11.80;6.85;;;14.40;77.90;;;;;;5420991;26;20332;-75
2024/04/10 03:45:22;;;;;;;13.45;7.65;;;14.40;78.00;;;;;;5416744;26;20323;-75
2024/04/10 03:47:50;;;;;;;13.25;6.82;;;14.30;78.10;;;;;;5439621;26;20419;-73
2024/04/10 03:50:18;;;;;;;13.20;7.22;;;14.30;78.60;;;;;;5400417;26;20014;-77
2024/04/10 03:52:46;;;;;;;9.18;6.80;;;14.40;78.50;;;;;;5418868;26;20004;-77
2024/04/10 03:55:13;;;;;;;11.60;7.10;;;14.30;78.30;;;;;;5454012;26;20003;-76
2024/04/10 03:57:41;;;;;;;11.55;7.30;;;14.30;78.60;;;;;;5452989;26;20707;-75
2024/04/10 04:00:10;;;;;;;10.30;6.90;;;14.30;78.30;;;;;;5451322;26;20014;-78
2024/04/10 04:02:37;;;;;;;8.77;6.80;;;14.30;78.70;;;;;;5451367;26;20009;-75
2024/04/10 04:05:06;;;;;;;10.80;7.35;;;14.30;78.30;;;;;;5453475;26;20014;-75
2024/04/10 04:07:33;;;;;;;13.10;7.43;;;14.40;78.30;;;;;;5450801;26;20014;-77
2024/04/10 04:10:01;;;;;;;11.98;7.07;;;14.30;78.90;;;;;;5422234;26;20007;-76
2024/04/10 04:12:28;;;;;;;9.95;6.70;;;14.20;77.90;;;;;;5451664;26;20010;-76
2024/04/10 04:14:56;;;;;;;14.02;6.85;;;14.20;78.60;;;;;;5415068;26;20039;-75
2024/04/10 04:17:23;;;;;;;9.93;6.72;;;14.10;78.90;;;;;;5418687;26;19995;-75
2024/04/10 04:19:51;;;;;;;10.40;6.30;;;14.10;78.90;;;;;;5451479;26;20007;-76
2024/04/10 04:22:18;;;;;;;10.85;6.85;;;14.10;78.90;;;;;;5451637;26;20018;-76
2024/04/10 04:24:46;;;;;;;13.90;7.45;;;14.20;78.70;;;;;;5453013;26;20011;-74
2024/04/10 04:27:16;;;;;;;12.77;7.32;;;14.00;78.80;;;;;;5416002;26;20455;-75
2024/04/10 04:29:46;;;;;;;17.75;7.10;;;14.10;78.70;;;;;;5440654;26;20011;-75
2024/04/10 04:32:13;;;;;;;;;;;14.10;79.00;;;;;;5433211;26;20007;-74
2024/04/10 04:34:43;;;;;;;12.32;7.03;;;14.10;79.10;;;;;;5408376;26;19932;-73
2024/04/10 04:37:11;;;;;;;11.02;6.32;;;14.10;79.30;;;;;;5450836;26;20013;-75
2024/04/10 04:39:38;;;;;;;9.77;6.40;;;14.10;79.90;;;;;;5451228;26;20002;-74
2024/04/10 04:42:05;;;;;;;11.40;6.32;;;14.10;78.90;;;;;;5415134;26;20579;-74
2024/04/10 04:44:33;;;;;;;9.13;5.80;;;14.20;78.60;;;;;;5409657;26;20010;-73
2024/04/10 04:47:00;;;;;;;8.00;5.70;;;14.10;78.40;;;;;;5398522;26;20003;-73
2024/04/10 04:49:28;;;;;;;10.38;6.50;;;14.20;78.70;;;;;;5449417;26;20045;-75
2024/04/10 04:51:55;;;;;;;8.85;5.57;;;14.20;78.90;;;;;;5417333;26;20439;-75
2024/04/10 04:54:22;;;;;;;12.38;5.30;;;14.00;78.30;;;;;;5415527;26;19999;-78
2024/04/10 04:56:50;;;;;;;10.73;5.85;;;14.20;78.40;;;;;;5414876;26;20031;-76
2024/04/10 04:59:17;;;;;;;11.93;5.57;;;14.30;78.60;;;;;;5415962;26;20015;-78
2024/04/10 05:01:44;;;;;;;14.68;5.25;;;14.40;78.20;;;;;;5417450;26;20431;-76
2024/04/10 05:06:58;;;;;;;9.88;5.15;;;14.50;78.30;;;;;;5429352;26;20080;-73
2024/04/10 05:09:25;;;;;;;9.88;5.60;;;14.60;78.20;;;;;;5449378;26;20014;-76
2024/04/10 05:11:53;;;;;;;9.55;6.40;;;14.70;78.00;;;;;;5415516;26;20049;-76
2024/04/10 05:14:20;;;;;;;9.05;6.03;;;14.70;77.90;;;;;;5415013;26;20010;-75
2024/04/10 05:16:48;;;;;;;15.18;6.80;;;14.70;77.50;;;;;;5414319;26;20011;-76
2024/04/10 05:19:16;;;;;;;14.32;6.95;;;14.70;77.60;;;;;;5427946;26;20439;-74
2024/04/10 05:21:43;;;;;;;12.05;7.75;;;14.70;77.60;;;;;;5420817;26;20013;-75
2024/04/10 05:24:11;;;;;;;19.13;7.47;;;14.80;77.40;;;;;;5421138;26;19998;-77
2024/04/10 05:26:38;;;;;;;11.93;6.75;;;14.70;77.30;;;;;;5438746;26;20011;-76
2024/04/10 05:29:05;;;;;;;12.10;7.63;;;14.70;77.50;;;;;;5438585;26;20035;-75
2024/04/10 05:31:36;;;;;;;10.30;7.22;;;14.60;77.70;;;;;;5421551;26;20009;-73
2024/04/10 05:34:05;;;;;;;10.15;7.38;;;14.50;78.00;;;;;;5467756;26;20036;-75
2024/04/10 05:36:32;;;;;;;14.40;7.60;;;14.50;78.00;;;;;;5420106;26;20018;-74
2024/04/10 05:39:00;;;;;;;10.20;6.88;;;14.50;78.40;;;;;;5427754;26;19998;-75
2024/04/10 05:41:28;;;;;;;12.60;6.72;;;14.40;78.20;;;;;;5426777;26;19999;-77
2024/04/10 05:43:55;;;;;;;12.32;8.10;;;14.50;78.40;;;;;;5450352;26;20014;-78
2024/04/10 05:46:24;;;;;;;11.50;6.97;;;14.50;77.90;;;;;;5414306;26;20027;-77
2024/04/10 05:48:52;;;;;;;11.90;6.95;;;14.40;78.10;;;;;;5431290;26;20079;-75
2024/04/10 05:51:20;;;;;;;12.13;6.90;;;14.20;78.50;;;;;;5422057;26;20051;-77
2024/04/10 05:53:47;;;;;;;10.05;7.00;;;14.20;78.50;;;;;;5432173;26;20003;-74
2024/04/10 05:56:15;;;;;;;10.52;7.00;;;14.30;78.60;;;;;;5413875;26;19995;-77
2024/04/10 05:58:43;;;;;;;9.40;7.18;;;14.40;78.50;;;;;;5417009;26;20702;-74
2024/04/10 06:01:11;;;;;;;9.00;6.60;;;14.20;78.50;;;;;;5440998;26;20381;-77
2024/04/10 06:03:39;;;;;;;12.27;6.55;;;14.30;79.40;;;;;;5414365;26;20080;-78
2024/04/10 06:06:15;;;;;;;11.50;6.68;;;14.30;79.00;;;;;;5417519;26;20008;-77
2024/04/10 06:08:43;;;;;;;11.20;6.60;;;14.30;78.90;;;;;;5443666;26;20007;-76
2024/04/10 06:11:11;;;;;;;10.45;6.55;;;14.40;78.80;;;;;;5438228;26;19999;-78
2024/04/10 06:13:39;;;;;;;8.43;6.22;;;14.50;78.80;;;;;;5425837;26;20015;-76
2024/04/10 06:16:06;;;;;;;13.95;6.65;;;14.60;79.00;;;;;;5414256;26;20004;-74
2024/04/10 06:18:36;;;;;;;12.63;6.43;;;14.60;79.00;;;;;;5407819;26;20018;-79
2024/04/10 06:21:07;;;;;;;11.20;6.65;;;14.70;78.90;;;;;;5417185;26;20017;-76
2024/04/10 06:23:35;;;;;;;18.40;6.45;;;14.60;78.70;;;;;;5427714;26;20017;-78
2024/04/10 06:26:06;;;;;;;10.75;6.20;;;14.70;78.80;;;;;;5449478;26;20003;-78
2024/04/10 06:28:33;;;;;;;9.63;6.40;;;14.70;78.50;;;;;;5451463;26;20011;-73
2024/04/10 06:31:03;;;;;;;12.00;5.72;;;14.90;78.20;;;;;;5425459;26;20084;-77
2024/04/10 06:33:31;;;;;;;9.95;6.35;;;14.80;77.70;;;;;;5467898;26;20002;-77
2024/04/10 06:36:06;;;;;;;9.98;6.63;;;14.90;78.10;;;;;;5433351;26;20360;-79
2024/04/10 06:38:34;;;;;;;16.60;6.18;;;14.70;78.50;;;;;;5384016;26;19999;-77
2024/04/10 06:41:03;;;;;;;10.88;6.65;;;14.90;78.60;;;;;;5435101;26;20003;-75
2024/04/10 06:43:33;;;;;;;14.23;5.95;;;15.00;77.60;;;;;;5450206;26;20011;-75
2024/04/10 06:46:03;;;;;;;8.13;5.85;;;15.00;77.40;;;;;;5430747;26;20025;-75
2024/04/10 06:48:31;;;;;;;14.10;6.07;;;15.00;77.80;;;;;;5379003;26;20011;-73
2024/04/10 06:51:00;;;;;;;10.57;6.13;;;15.10;77.70;;;;;;5437432;26;20030;-78
2024/04/10 06:53:27;;;;;;;14.00;6.18;;;15.10;77.40;;;;;;5416490;26;20022;-77
2024/04/10 06:56:03;;;;;;;10.18;6.05;;;15.20;77.60;;;;;;5416170;26;20048;-78
2024/04/10 06:58:34;;;;;;;12.73;6.60;;;15.30;77.30;;;;;;5449061;26;20014;-76
2024/04/10 07:01:02;;;;;;;10.68;6.30;;;15.30;77.90;;;;;;5419025;26;20056;-75
2024/04/10 07:03:35;;;;;;;9.50;6.05;;;15.40;77.70;;;;;;5449816;26;20010;-75
2024/04/10 07:06:16;;;;;;;10.13;6.07;;;15.50;77.20;;;;;;5441433;26;20320;-75
2024/04/10 07:08:45;;;;;;;10.23;6.30;;;15.50;77.40;;;;;;5422192;26;20318;-74
2024/04/10 07:11:22;;;;;;;42.80;28.13;;;15.70;77.30;;;;;;5430307;26;20015;-73
2024/04/10 07:13:53;;;;;;;33.60;23.55;;;15.80;77.50;;;;;;5404805;26;20430;-74
2024/04/10 07:16:26;;;;;;;21.27;14.55;;;16.00;77.00;;;;;;5443080;26;20017;-74
2024/04/10 07:18:56;;;;;;;15.77;8.77;;;16.00;76.00;;;;;;5428282;26;20020;-74
2024/04/10 07:21:25;;;;;;;11.50;6.97;;;16.20;75.90;;;;;;5421872;26;20084;-74
2024/04/10 07:23:52;;;;;;;10.23;6.80;;;16.40;74.20;;;;;;5425252;26;19999;-74
2024/04/10 07:26:27;;;;;;;42.92;27.67;;;16.50;73.30;;;;;;5414731;26;20441;-72
2024/04/10 07:28:56;;;;;;;31.05;21.38;;;16.80;72.90;;;;;;5428471;26;20004;-73
2024/04/10 07:31:33;;;;;;;39.08;25.10;;;16.90;72.20;;;;;;5417466;26;20003;-73
2024/04/10 07:34:03;;;;;;;14.10;10.40;;;17.00;72.50;;;;;;5461507;26;20079;-73
2024/04/10 07:36:32;;;;;;;12.50;7.93;;;17.10;71.20;;;;;;5424375;26;20014;-73
2024/04/10 07:39:06;;;;;;;10.95;5.80;;;17.20;70.90;;;;;;5399386;26;20318;-73
2024/04/10 07:41:36;;;;;;;70.70;46.65;;;17.10;70.30;;;;;;5418722;26;20031;-73
2024/04/10 07:44:05;;;;;;;48.72;28.80;;;17.00;71.00;;;;;;5448484;26;20002;-72
2024/04/10 07:46:34;;;;;;;24.52;15.88;;;17.10;71.80;;;;;;5418599;26;20994;-73
2024/04/10 07:49:02;;;;;;;24.05;16.67;;;17.30;71.10;;;;;;5431325;26;20318;-74
2024/04/10 07:51:30;;;;;;;8.52;6.85;;;17.40;70.70;;;;;;5415638;26;20053;-74
2024/04/10 07:53:58;;;;;;;8.65;5.55;;;17.40;70.80;;;;;;5448007;26;20022;-75
2024/04/10 07:56:26;;;;;;;23.70;13.70;;;17.50;70.70;;;;;;5417986;26;20430;-74
2024/04/10 07:58:58;;;;;;;51.33;30.20;;;17.40;69.90;;;;;;5415084;26;20326;-74
2024/04/10 08:01:26;;;;;;;21.48;14.35;;;17.40;70.60;;;;;;5446007;26;20013;-74
2024/04/10 08:03:54;;;;;;;12.65;7.15;;;17.50;69.90;;;;;;5449896;26;19999;-75
2024/04/10 08:06:22;;;;;;;9.35;4.90;;;17.80;69.20;;;;;;5440869;26;20000;-75
2024/04/10 08:08:55;;;;;;;13.27;5.80;;;17.70;68.70;;;;;;5431914;26;19999;-74
2024/04/10 08:11:23;;;;;;;7.82;4.70;;;17.80;69.30;;;;;;5441057;26;20477;-74
2024/04/10 08:13:52;;;;;;;10.18;5.10;;;18.00;69.50;;;;;;5386455;26;20000;-73
2024/04/10 08:16:20;;;;;;;9.77;4.18;;;18.10;68.30;;;;;;5431349;26;20014;-73
2024/04/10 08:18:50;;;;;;;7.97;4.63;;;18.10;67.70;;;;;;5414485;26;20000;-74
2024/04/10 08:21:18;;;;;;;7.10;4.07;;;18.20;67.30;;;;;;5461529;26;19999;-75
2024/04/10 08:23:49;;;;;;;9.18;4.18;;;18.30;67.20;;;;;;5431587;26;20038;-78
2024/04/10 08:26:20;;;;;;;10.60;4.20;;;18.20;67.20;;;;;;5421890;26;20039;-72
2024/04/10 08:28:49;;;;;;;6.20;4.22;;;18.30;67.60;;;;;;5445907;26;20011;-77
2024/04/10 08:31:27;;;;;;;8.35;3.95;;;18.60;67.50;;;;;;5396608;26;20038;-75
2024/04/10 08:33:55;;;;;;;7.80;4.03;;;18.90;66.70;;;;;;5444266;26;20004;-73
2024/04/10 08:36:24;;;;;;;9.25;4.40;;;18.80;65.90;;;;;;5405864;26;20022;-72
2024/04/10 08:38:52;;;;;;;25.98;14.50;;;18.90;66.80;;;;;;5432464;26;19995;-74
2024/04/10 08:41:22;;;;;;;53.78;33.97;;;19.10;67.00;;;;;;5414996;26;20007;-73
2024/04/10 08:43:52;;;;;;;23.38;14.52;;;19.30;67.00;;;;;;5428851;26;20016;-74
2024/04/10 08:46:21;;;;;;;13.95;5.78;;;19.50;66.30;;;;;;5437662;26;20002;-78
2024/04/10 08:48:52;;;;;;;15.03;4.77;;;19.50;65.70;;;;;;5431037;26;20111;-74
2024/04/10 08:51:21;;;;;;;;;;;19.60;68.10;;;;;;5448750;26;21931;-75
2024/04/10 08:53:52;;;;;;;5.70;3.67;;;19.80;66.60;;;;;;5420903;26;19925;-74
2024/04/10 08:56:19;;;;;;;12.63;4.28;;;19.80;68.50;;;;;;5421429;26;20032;-74
2024/04/10 08:58:47;;;;;;;7.03;3.35;;;19.90;65.80;;;;;;5401296;26;20007;-75
2024/04/10 09:01:25;;;;;;;5.93;2.95;;;20.10;64.40;;;;;;5418149;26;20351;-76
2024/04/10 09:03:55;;;;;;;6.47;3.17;;;20.00;61.20;;;;;;5427607;26;20472;-76
2024/04/10 09:06:25;;;;;;;;;;;20.20;62.10;;;;;;5419491;26;20385;-73
2024/04/10 09:09:06;;;;;;;6.28;3.20;;;20.40;61.20;;;;;;5424069;26;19935;-74
2024/04/10 09:11:34;;;;;;;55.60;38.80;;;20.50;60.90;;;;;;5421411;26;20007;-75
2024/04/10 09:14:06;;;;;;;65.95;44.22;;;20.50;61.10;;;;;;5448412;26;20031;-76
2024/04/10 09:16:35;;;;;;;13.68;9.70;;;20.60;61.80;;;;;;5404191;26;20330;-75
2024/04/10 09:19:07;;;;;;;5.85;3.47;;;20.60;61.80;;;;;;5414775;26;20003;-75
2024/04/10 09:21:35;;;;;;;9.50;3.90;;;20.60;60.50;;;;;;5432105;26;20011;-75
2024/04/10 09:24:04;;;;;;;6.20;3.67;;;20.70;61.00;;;;;;5439571;26;20003;-75
2024/04/10 09:26:31;;;;;;;7.57;2.80;;;20.80;59.90;;;;;;5435550;26;21337;-74
2024/04/10 09:29:12;;;;;;;6.47;3.13;;;20.90;58.90;;;;;;5431566;26;20368;-74
2024/04/10 09:31:41;;;;;;;8.98;4.05;;;21.10;59.40;;;;;;5420615;26;20426;-78
2024/04/10 09:34:10;;;;;;;5.15;2.70;;;21.00;60.40;;;;;;5438771;26;19999;-83
2024/04/10 09:36:40;;;;;;;6.00;2.97;;;20.90;58.20;;;;;;5427267;26;20000;-74
2024/04/10 09:39:07;;;;;;;5.43;2.40;;;21.10;58.60;;;;;;5416795;26;20103;-74
2024/04/10 09:41:36;;;;;;;4.15;2.40;;;21.40;57.30;;;;;;5404661;26;20416;-74
2024/04/10 09:44:07;;;;;;;6.97;2.55;;;21.60;57.00;;;;;;5424336;26;20012;-76
2024/04/10 09:46:35;;;;;;;;;;;21.70;56.50;;;;;;5441002;26;20081;-74
2024/04/10 09:49:12;;;;;;;9.52;6.22;;;21.90;57.50;;;;;;5445323;26;20981;-78
2024/04/10 09:51:41;;;;;;;14.23;9.25;;;22.10;57.80;;;;;;5447293;26;20010;-76
2024/04/10 09:54:11;;;;;;;10.43;6.70;;;22.00;58.10;;;;;;5427489;26;20000;-75
2024/04/10 09:56:43;;;;;;;7.20;3.20;;;21.90;58.40;;;;;;5450116;26;19994;-79
2024/04/10 09:59:13;;;;;;;29.73;18.67;;;22.00;59.00;;;;;;5449774;26;20257;-77
2024/04/10 10:01:41;;;;;;;13.82;9.80;;;21.90;57.50;;;;;;5419713;26;20003;-76
2024/04/10 10:04:09;;;;;;;7.05;3.33;;;22.00;56.30;;;;;;5439862;26;20003;-88
2024/04/10 10:06:37;;;;;;;5.40;2.45;;;22.00;56.50;;;;;;5402943;26;20044;-86
2024/04/10 10:09:06;;;;;;;7.30;2.97;;;22.20;56.70;;;;;;5451895;26;20043;-86
2024/04/10 10:11:34;;;;;;;;;;;22.30;56.70;;;;;;5437323;26;20032;-79
2024/04/10 10:14:06;;;;;;;4.80;2.65;;;22.40;56.20;;;;;;5423647;26;19940;-86
2024/04/10 10:16:35;;;;;;;5.93;2.55;;;22.40;56.00;;;;;;5431486;26;20003;-84
2024/04/10 10:19:03;;;;;;;7.68;2.58;;;22.40;55.70;;;;;;5418853;26;20003;-86
2024/04/10 10:21:33;;;;;;;4.53;2.42;;;22.60;56.40;;;;;;5430369;26;20346;-83
2024/04/10 10:24:06;;;;;;;8.82;2.80;;;22.90;56.60;;;;;;5412841;26;20010;-80
2024/04/10 10:26:35;;;;;;;4.45;2.40;;;23.20;56.90;;;;;;5416871;26;19999;-82
2024/04/10 10:29:07;;;;;;;4.85;2.60;;;23.20;55.80;;;;;;5416502;26;20042;-85
2024/04/10 10:31:38;;;;;;;4.75;2.65;;;23.20;55.70;;;;;;5428349;26;20015;-84
2024/04/10 10:34:15;;;;;;;7.07;2.88;;;23.10;56.20;;;;;;5450739;26;20423;-79
2024/04/10 10:36:42;;;;;;;5.63;2.85;;;23.40;55.40;;;;;;5442666;26;20441;-90
2024/04/10 10:39:16;;;;;;;14.82;10.63;;;23.50;55.10;;;;;;5433092;26;20003;-79
2024/04/10 10:41:43;;;;;;;;;;;23.60;55.20;;;;;;5469495;26;20026;-79
2024/04/10 10:44:20;;;;;;;15.32;9.82;;;23.60;55.00;;;;;;5431876;26;19931;-77
2024/04/10 10:46:48;;;;;;;6.15;2.95;;;23.80;56.00;;;;;;5435115;26;20003;-77
2024/04/10 10:49:16;;;;;;;4.78;2.63;;;23.90;55.60;;;;;;5443544;26;20423;-80
2024/04/10 10:51:43;;;;;;;4.25;2.50;;;23.90;54.30;;;;;;5424313;26;20019;-76
2024/04/10 10:54:11;;;;;;;7.00;2.67;;;24.00;54.50;;;;;;5419338;26;20002;-74
2024/04/10 10:56:38;;;;;;;4.72;2.65;;;24.20;54.40;;;;;;5433948;26;20014;-73
2024/04/10 11:00:34;;;;;;;4.90;2.42;;;24.30;54.30;;;;;;5445503;26;20460;-75
2024/04/10 11:03:10;;;;;;;5.28;2.88;;;24.50;53.10;;;;;;5452492;26;20010;-71
2024/04/10 11:05:53;;;;;;;77.50;49.55;;;24.60;53.10;;;;;;5432456;26;20300;-74
2024/04/10 11:08:24;;;;;;;15.60;10.80;;;24.70;53.30;;;;;;5434902;26;20319;-74
2024/04/10 11:10:52;;;;;;;19.52;11.80;;;24.90;52.90;;;;;;5442925;26;20350;-78
2024/04/10 11:13:20;;;;;;;8.68;3.90;;;25.30;53.00;;;;;;5416997;26;19995;-74
2024/04/10 11:15:51;;;;;;;6.60;2.50;;;25.90;51.50;;;;;;5453712;26;20460;-75
2024/04/10 11:18:19;;;;;;;41.83;30.77;;;26.50;50.00;;;;;;5452238;26;19998;-74
2024/04/10 11:20:49;;;;;;;99.05;76.10;;;27.00;50.40;;;;;;5464504;26;20597;-75
2024/04/10 11:23:17;;;;;;;15.07;11.45;;;26.80;49.40;;;;;;5438781;26;20423;-75
2024/04/10 11:25:45;;;;;;;6.07;3.45;;;26.70;49.60;;;;;;5442383;26;20075;-82
2024/04/10 11:28:13;;;;;;;10.70;3.92;;;26.50;49.60;;;;;;5428796;26;20014;-72
2024/04/10 11:30:40;;;;;;;7.65;2.38;;;27.00;50.60;;;;;;5467599;26;20015;-78
2024/04/10 11:33:08;;;;;;;6.75;3.00;;;27.00;48.70;;;;;;5461459;26;20437;-76
2024/04/10 11:35:41;;;;;;;7.68;3.95;;;27.20;48.90;;;;;;5422948;26;20072;-75
2024/04/10 11:38:09;;;;;;;6.68;3.05;;;27.80;49.90;;;;;;5447221;26;20003;-74
2024/04/10 11:40:37;;;;;;;6.80;2.47;;;28.50;49.30;;;;;;5434031;26;20018;-74
2024/04/10 11:43:05;;;;;;;6.10;2.38;;;27.50;47.20;;;;;;5433565;26;19999;-74
2024/04/10 11:45:32;;;;;;;5.18;2.83;;;27.20;48.30;;;;;;5433223;26;20088;-73
2024/04/10 11:47:59;;;;;;;7.28;2.53;;;27.40;49.60;;;;;;5448216;26;20014;-74
2024/04/10 11:50:28;;;;;;;4.87;2.43;;;27.50;47.90;;;;;;5433896;26;20014;-75
2024/04/10 11:52:55;;;;;;;10.63;3.20;;;27.80;47.70;;;;;;5435940;26;20582;-73
2024/04/10 11:55:27;;;;;;;4.95;2.67;;;27.90;48.20;;;;;;5451020;26;20020;-75
2024/04/10 11:57:55;;;;;;;5.53;2.80;;;27.70;48.40;;;;;;5429306;26;20028;-78
2024/04/10 12:00:22;;;;;;;6.93;3.30;;;27.60;50.00;;;;;;5418739;26;20039;-75
2024/04/10 12:02:50;;;;;;;5.03;2.70;;;27.60;50.60;;;;;;5438393;26;20103;-74
2024/04/10 12:05:17;;;;;;;6.18;2.80;;;27.60;47.70;;;;;;5456255;26;19999;-74
2024/04/10 12:07:45;;;;;;;6.25;2.70;;;27.80;50.00;;;;;;5448571;26;20014;-73
2024/04/10 12:10:13;;;;;;;19.63;15.63;;;27.90;47.90;;;;;;5432608;26;20015;-73
2024/04/10 12:12:40;;;;;;;11.05;9.32;;;28.20;49.60;;;;;;5423049;26;20032;-75
2024/04/10 12:15:08;;;;;;;28.48;25.35;;;28.10;48.20;;;;;;5415270;26;20016;-74
2024/04/10 12:17:36;;;;;;;59.28;53.28;;;28.00;47.10;;;;;;5435709;26;20011;-73
2024/04/10 12:20:04;;;;;;;34.17;29.92;;;28.00;47.10;;;;;;5413299;26;20006;-73
2024/04/10 12:22:36;;;;;;;8.77;4.63;;;28.00;47.60;;;;;;5429544;26;20028;-74
2024/04/10 12:25:03;;;;;;;10.77;6.05;;;28.30;46.80;;;;;;5431645;26;20003;-73
2024/04/10 12:27:31;;;;;;;17.35;12.60;;;28.40;48.20;;;;;;5420942;26;20343;-73
2024/04/10 12:29:59;;;;;;;14.82;11.25;;;28.30;47.20;;;;;;5419257;26;20047;-73
2024/04/10 12:32:26;;;;;;;15.75;9.50;;;28.60;47.00;;;;;;5425369;26;20004;-73
2024/04/10 12:38:02;;;;;;;9.77;6.80;;;28.40;46.80;;;;;;5426449;26;20319;-73
2024/04/10 12:40:34;;;;;;;11.23;4.10;;;28.80;46.20;;;;;;5419739;26;20333;-75
2024/04/10 12:43:06;;;;;;;13.97;4.70;;;29.20;46.60;;;;;;5414388;26;20081;-74
2024/04/10 12:45:34;;;;;;;5.03;2.63;;;29.40;47.00;;;;;;5404226;26;20292;-74
2024/04/10 12:48:02;;;;;;;6.55;2.90;;;29.60;46.00;;;;;;5414796;26;20022;-75
2024/04/10 12:50:30;;;;;;;12.80;3.45;;;29.50;45.40;;;;;;5438431;26;20397;-75
2024/04/10 12:52:57;;;;;;;5.85;2.40;;;30.00;46.50;;;;;;5421634;26;20011;-75
2024/04/10 12:55:25;;;;;;;4.57;2.75;;;30.20;44.30;;;;;;5430913;26;20003;-75
2024/04/10 12:57:52;;;;;;;6.78;2.75;;;32.70;44.90;;;;;;5416221;26;20028;-75